Main page
METAR-TAF:

METAR-TAF

Airports :

Padua Airport

Padua, Italy

latitude: 45-23-45N, longitude: 11-50-53E, elevation: 13 m

Current weather observation

The report was made 11 hours and 50 minutes ago, at 12:02 UTC
Wind 7 kt from the South/Southeast
Temperature 29°C
Humidity 70%
Pressure 1011 hPa
Visibility 10 km or more
Scattered clouds at a height of 3000 ft, Cumulonimbus.
thunderstorm, rain

METAR: LIPU 201202Z 16007KT 9999 TSRA SCT030CB 29/23 Q1011

Time: 01:52 (23:52 UTC)


TAF: missing

Weather observations and forecasts of more than 4000 airports (METAR and TAF reports).

The available stations are represented by yellow and red dots on the map.

Hover mouse over dot to see the name of the station.

Then click to see weather observations and forecasts.

To change the map : click on the green buttons with a black cross to zoom in, on the green button with a dash to zoom out, or on the green arrows for adjacent maps.


METAR-TAF: